KCQW

Cheraw Municipal / Lynch Bellinger Field Airport

Cheraw, South Carolina, USA
METAR KCQW 271155Z AUTO 18005KT 10SM CLR 22/21 A3001 RMK AO2
Observed Flight Rules
May-27 @ 11:55 UTC (10 minutes ago) Visual Flight Rules
Wind Visibility Clouds
180° at 5 knots 10 miles
  • Clear skies
Temperatures Readings
Current 22°C / 72°F
Dewpoint 21°C / 70°F
Humidity 94%
Altimeter 30.01" Hg
Pressure 1016 hPa
Elevation 73
METAR KCQW 271155Z AUTO 18005KT 10SM CLR 22/21 A3001 RMK AO2
Observed Flight Rules
May-27 @ 11:55 UTC
(10 minutes ago)
VFR
Wind Visibility
180° at 5 knots 10 miles
Clouds
  • Clear skies
Temperature Dewpoint
22°C / 72°F 21°C / 70°F
Humidity Altimeter Pressure
94% 30.01" Hg 1016 hPa